createdAt,value
2017-01-21T16:25:42.945Z,1018.4
2017-01-21T16:35:54.874Z,1018.3
2017-01-21T16:46:06.832Z,1018.3
2017-01-21T16:56:18.839Z,1018.3
2017-01-21T17:06:30.830Z,1018.2
2017-01-21T17:16:42.865Z,1018.2
2017-01-21T17:26:54.944Z,1018.2
2017-01-21T17:37:06.952Z,1018.3
2017-01-21T17:47:19.005Z,1018.2
2017-01-21T17:57:31.054Z,1018.2
2017-01-21T18:07:43.117Z,1018.1
2017-01-21T18:17:55.229Z,1018.2
2017-01-21T18:28:07.501Z,1018.2
2017-01-21T18:38:19.669Z,1018.2
2017-01-21T18:48:31.926Z,1018.3
2017-01-21T18:58:44.101Z,1018.2
2017-01-21T19:08:56.279Z,1018.2
2017-01-21T19:19:08.504Z,1018.1
2017-01-21T19:29:20.775Z,1018.1
2017-01-21T19:39:32.995Z,1017.9
2017-01-21T19:49:45.215Z,1017.9
2017-01-21T19:59:57.498Z,1017.9
2017-01-21T20:10:09.792Z,1017.9
2017-01-21T20:20:22.000Z,1017.8
2017-01-21T20:30:34.343Z,1018
2017-01-21T20:40:46.595Z,1017.9
2017-01-21T20:50:58.987Z,1017.9
2017-01-21T21:01:11.258Z,1018
2017-01-21T21:11:23.611Z,1018
2017-01-21T21:21:35.929Z,1017.9
2017-01-21T21:31:48.297Z,1017.9
2017-01-21T21:42:00.639Z,1017.9
2017-01-21T21:52:13.014Z,1017.9
2017-01-21T22:02:25.417Z,1017.9
2017-01-21T22:12:37.927Z,1018
2017-01-21T22:22:50.412Z,1018.1
2017-01-21T22:33:02.931Z,1018.1
2017-01-21T22:43:15.496Z,1018.1
2017-01-21T22:53:28.075Z,1018
2017-01-21T23:03:40.706Z,1018
2017-01-21T23:13:53.357Z,1017.8
2017-01-21T23:24:06.072Z,1017.7
2017-01-21T23:34:18.764Z,1017.7
2017-01-21T23:44:31.401Z,1017.8
2017-01-21T23:54:44.047Z,1017.7
